AirNav   Pilot Hours Calculator
 
 270 users online  

M13 Poplarville-Pearl River County Airport
Poplarville, Mississippi, USA

GOING TO POPLARVILLE?


FAA INFORMATION EFFECTIVE 10 OCTOBER 2019

Location

FAA Identifier: M13
Lat/Long: 30-47-11.6900N 089-30-16.3300W
30-47.194833N 089-30.272167W
30.7865806,-89.5045361
(estimated)
Elevation: 320 ft. / 97.5 m (surveyed)
Variation: 02W (2020)
From city: 3 miles SE of POPLARVILLE, MS
Time zone: UTC -5 (UTC -6 during Standard Time)
Zip code: 39470

Airport Operations

Airport use: Open to the public
Activation date: 03/1976
Control tower: no
ARTCC: HOUSTON CENTER
FSS: GREENWOOD FLIGHT SERVICE STATION
NOTAMs facility: GWO (NOTAM-D service available)
Attendance: UNATNDD
Wind indicator: lighted
Segmented circle: yes
Lights: PAPI RWY 16 & 34; MIRL RWY 16/34 OPER DUSK - 2100. AFT 2100 ACTVT - CTAF.
Beacon: white-green (lighted land airport)
Operates sunset to sunrise.

Airport Communications

CTAF: 122.9
GULFPORT APPROACH: 124.6
GULFPORT DEPARTURE: 124.6
WX AWOS-3PT at BXA (19 nm W): 118.025 (985-732-6224)
WX AWOS-3PT at MJD (19 nm SW): 119.075 (601 798 4136)
  • APCH/DEP SVC PRVDD BY GULFPORT APCH (GPT) 124.6/351.1. WHEN GPT APCH CLSD SVC PRVDD BY HOUSTON ARTCC (ZHU) ON 126.8/327.8 (HATTIESBURG RCAG).

Nearby radio navigation aids

VOR radial/distance  VOR name  Freq  Var
PCUr036/17.9PICAYUNE VOR/DME112.2005E
GPTr314/31.7GULFPORT VORTAC109.0002E
LBYr188/38.9EATON VORTAC110.6005E

 
NDB name  Hdg/Dist  Freq  Var  ID
BOGALUSA107/19.335300WGVB --. ...- -...

Airport Services

Fuel available: 100LL
FUEL 24 HR SELF SVC WITH CREDIT CARD.
Parking: tiedowns
Airframe service: MAJOR
Powerplant service: MAJOR
Bottled oxygen: NONE
Bulk oxygen: NONE

Runway Information

Runway 16/34

Dimensions: 4000 x 100 ft. / 1219 x 30 m
Surface: asphalt, in good condition
Weight bearing capacity: 
Single wheel: 25.2
Runway edge lights: medium intensity
Gradient: S
RUNWAY 16  RUNWAY 34
Latitude: 30-47.510000N30-46.879167N
Longitude: 089-30.384000W089-30.160500W
Elevation: 302.6 ft.318.9 ft.
Traffic pattern: leftleft
Runway heading: 165 magnetic, 163 true345 magnetic, 343 true
Markings: basic, in fair conditionbasic, in fair condition
Visual slope indicator: 2-light PAPI on left (3.00 degrees glide path)2-light PAPI on left (3.00 degrees glide path)
Touchdown point: yes, no lightsyes, no lights
Obstructions: 55 ft. trees, 1650 ft. from runway, 26:1 slope to clearnone

Airport Ownership and Management from official FAA records

Ownership: Publicly-owned
Owner: CITY OF POPLARVILLE & PEARL RIVER
CITY HALL, 101 N MAIN ST
POPLARVILLE, MS 39470
Phone 601-795-8161
Manager: BRADLEY HOLLIDAY
PO BOX 901
POPLARVILLE, MS 39470
Phone 601-550-3059

Airport Operational Statistics

Aircraft based on the field: 11
Single engine airplanes: 9
Ultralights: 1
Military aircraft: 1
    
Aircraft operations: avg 27/day *
71% local general aviation
29% transient general aviation
<1% military
* for 12-month period ending 06 May 2019

Additional Remarks

A30A-34 TRRN DROPS OFF ABRUPTLY 200 FT FROM THR.
A30A-16 335 FT AGL ANT TWR ON L DOWNWIND PAT.
ULTRALIGHT ACT ON & INVOF ARPT.
FOR CD CTC GULFPORT APCH AT 228-265-6151, WHEN APCH CLSD CTC HOUSTON ARTCC AT 281-230-5622.

Instrument Procedures

NOTE: All procedures below are presented as PDF files. If you need a reader for these files, you should download the free Adobe Reader.

NOT FOR NAVIGATION. Please procure official charts for flight.
FAA instrument procedures published for use from 10 October 2019 at 0901Z to 17 November 2019 at 0900Z.

 
IAPs - Instrument Approach Procedures
RNAV (GPS)-A **CHANGED**   download (160KB)
RNAV (GPS)-B **CHANGED**   download (161KB)
NOTE: Special Take-Off Minimums/Departure Procedures apply   download (171KB)

Other nearby airports with instrument procedures:

KBXA - George R Carr Memorial Air Field (19 nm W)
KMJD - Picayune Municipal Airport (19 nm SW)
KHSA - Stennis International Airport (25 nm S)
KASD - Slidell Airport (31 nm SW)
KHBG - Hattiesburg Bobby L Chain Municipal Airport (31 nm NE)
 
Loc | Ops | Rwys | IFR | FBO | Links
Com | Nav | Svcs | Stats | Notes
Area around M13 (Poplarville-Pearl River County Airport)
 
Road maps at: MapQuest Bing Google
 
Aerial photo
WARNING: Photo may not be current or correct
Aerial photo of M13 (Poplarville-Pearl River County Airport)
Photo by Michael Lott
Photo taken 25-Oct-2008
looking south.

Do you have a better or more recent aerial photo of Poplarville-Pearl River County Airport that you would like to share? If so, please send us your photo.

 
Sectional chart

 
Airport distance calculator
Flying to Poplarville-Pearl River County Airport? Find the distance to fly.

From to M13

Sunrise and sunset
Times for 14-Oct-2019
 Local
(UTC-5)
 Zulu
(UTC)
Morning civil twilight06:3711:37
Sunrise07:0112:01
Sunset18:2723:27
Evening civil twilight18:5223:52

Current date and time
Zulu (UTC)  14-Oct-2019 09:42:22
Local (UTC-5)  14-Oct-2019 04:42:22
 
METAR
KBXA 
19nm W 
140915Z AUTO 00000KT 10SM SCT110 17/14 A3004 RMK AO2 T01720138
KHSA 
25nm S 
140151Z 07006KT 10SM BKN038 22/17 A3004
KGPT 
31nm SE 
140853Z AUTO 36003KT 10SM FEW110 19/15 A3002 RMK AO2 SLP164 T01940150 58007
KHBG 
32nm NE 
140853Z AUTO 01003KT 10SM OVC080 16/12 A3005 RMK AO2 SLP175 T01560117 56005
K0R0 
34nm NW 
140915Z AUTO 00000KT 10SM +RA OVC090 15/14 A3008 RMK AO2
KASD 
35nm SW 
140853Z AUTO 36003KT 10SM FEW090 19/16 A3002 RMK AO2 SLP165 T01890156 58004 $
TAF
KGPT 
31nm SE 
140520Z 1406/1506 04004KT P6SM SKC FM141600 05005KT P6SM VCTS SCT020CB FM141900 08005KT P6SM VCTS SCT025CB FM142000 VRB04KT P6SM VCTS BKN040CB FM150000 VRB04KT P6SM BKN035
KHBG 
32nm NE 
140601Z 1406/1506 01005KT P6SM SCT080 BKN120 FM141000 00000KT 5SM BR OVC030 FM141500 03004KT P6SM OVC050 FM142100 11004KT P6SM -SHRA OVC025
NOTAMs
Click for the latest NOTAMs
NOTAMs are issued by the DoD/FAA and will open in a separate window not controlled by AirNav.

 

 
 

FBO, Fuel Providers, and Aircraft Ground Support

  
 Business Name 
 
 Contact 
 
 Services / Description 
 
Fuel Prices
 
Comments
  
City of Poplarville 601-795-9371
no information available

If you are affiliated with City of Poplarville and would like to show here your services, contact info, web link, logo, and more, click here
100LL
SS $4.45 
 Updated 28-Sep-2019
 
   2 read write
SS=Self service
Update Fuel Prices
 

Would you like to see your business listed on this page?

 If your business provides an interesting product or service to pilots, flight crews, aircraft, or users of the Poplarville-Pearl River County Airport, you should consider listing it here.  To start the listing process, click on the button below
 
Add a business
 

Other Pages about Poplarville-Pearl River County Airport

Update a link
 
Copyright © AirNav, LLC. All rights reserved. Privacy Policy  Contact